Аэропорт: Астана. Астана

ICAO: UACC

METAR:
2019-11-21 01:30:00
UACC 210130Z 30002MPS 6000 SCT015 M26/M28 Q1036 R04/451060 NOSIG RMK QFE745/0993
METAR:
2019-11-20 23:00:00
TAF UACC 202300Z 2100/2124 VRB02MPS 3100 IC BR SCT011 TXM20/2108Z TNM28/2101Z TEMPO 2100/2104 1200 BR SCT004 BECMG 2104/2106 9999 NSW TEMPO 2114/2124 3100 IC BR SCT011